createdAt,value
2019-03-04T00:29:08.816Z,11.28
2019-03-04T00:29:09.386Z,11.31
2019-03-04T00:29:09.989Z,11.27
2019-03-04T00:29:10.586Z,11.43
2019-03-04T00:29:11.189Z,11.27
2019-03-04T00:29:11.786Z,11.32
2019-03-04T00:29:12.386Z,11.32
2019-03-04T00:29:12.986Z,11.25
2019-03-04T00:30:06.469Z,11.34
2019-03-04T00:30:07.044Z,11.38
2019-03-04T00:30:07.643Z,11.39
2019-03-04T00:30:08.241Z,11.32
2019-03-04T00:30:08.840Z,11.39
2019-03-04T00:30:09.441Z,11.36
2019-03-04T00:30:10.041Z,11.38
2019-03-04T00:30:10.641Z,11.34
2019-03-04T00:31:05.145Z,11.38
2019-03-04T00:31:05.719Z,11.43
2019-03-04T00:31:06.316Z,11.32
2019-03-04T00:31:06.915Z,11.43
2019-03-04T00:31:07.522Z,11.39
2019-03-04T00:31:08.117Z,11.31
2019-03-04T00:31:08.715Z,11.39
2019-03-04T00:31:09.316Z,11.38
2019-03-04T00:32:03.829Z,11.38
2019-03-04T00:32:04.395Z,11.34
2019-03-04T00:32:04.998Z,11.39
2019-03-04T00:32:05.592Z,11.39
2019-03-04T00:32:06.192Z,11.25
2019-03-04T00:32:06.790Z,11.31
2019-03-04T00:32:07.392Z,11.39
2019-03-04T00:32:07.991Z,11.31
2019-03-04T00:33:02.496Z,11.29
2019-03-04T00:33:03.069Z,11.36
2019-03-04T00:33:03.668Z,11.38
2019-03-04T00:33:04.273Z,11.31
2019-03-04T00:33:04.869Z,11.38
2019-03-04T00:33:05.468Z,11.38
2019-03-04T00:33:06.069Z,11.38
2019-03-04T00:33:06.670Z,11.38
2019-03-04T00:34:01.174Z,11.36
2019-03-04T00:34:01.745Z,11.43
2019-03-04T00:34:02.345Z,11.44
2019-03-04T00:34:02.945Z,11.38
2019-03-04T00:34:03.545Z,11.36
2019-03-04T00:34:04.145Z,11.32
2019-03-04T00:34:04.747Z,11.34
2019-03-04T00:34:05.342Z,11.36
2019-03-04T00:34:59.874Z,11.31
2019-03-04T00:35:00.430Z,11.32
2019-03-04T00:35:01.020Z,11.31
2019-03-04T00:35:01.622Z,11.32
2019-03-04T00:35:02.221Z,11.32
2019-03-04T00:35:02.820Z,11.38
2019-03-04T00:35:03.423Z,11.41
2019-03-04T00:35:04.021Z,11.32
2019-03-04T00:35:57.502Z,11.38
2019-03-04T00:35:58.074Z,11.41
2019-03-04T00:35:58.673Z,11.38
2019-03-04T00:35:59.273Z,11.36
2019-03-04T00:35:59.874Z,11.41
2019-03-04T00:36:00.474Z,11.38
2019-03-04T00:36:01.076Z,11.35
2019-03-04T00:36:01.673Z,11.36
2019-03-04T00:36:55.153Z,11.38
2019-03-04T00:36:55.726Z,11.39
2019-03-04T00:36:56.327Z,11.36
2019-03-04T00:36:56.925Z,11.38
2019-03-04T00:36:57.528Z,11.44
2019-03-04T00:36:58.126Z,11.44
2019-03-04T00:36:58.727Z,11.44
2019-03-04T00:36:59.326Z,11.44
2019-03-04T00:37:52.805Z,11.44
2019-03-04T00:37:53.378Z,11.43
2019-03-04T00:37:53.979Z,11.41
2019-03-04T00:37:54.578Z,11.46
2019-03-04T00:37:55.178Z,11.49
2019-03-04T00:37:55.779Z,11.46
2019-03-04T00:37:56.382Z,11.39
2019-03-04T00:37:56.982Z,11.47
2019-03-04T00:38:50.459Z,11.50
2019-03-04T00:38:51.034Z,11.49
2019-03-04T00:38:51.629Z,11.47
2019-03-04T00:38:52.230Z,11.47
2019-03-04T00:38:52.829Z,11.47
2019-03-04T00:38:53.428Z,11.46
2019-03-04T00:38:54.032Z,11.50
2019-03-04T00:38:54.629Z,11.49
2019-03-04T00:39:48.110Z,11.53
2019-03-04T00:39:48.683Z,11.56
2019-03-04T00:39:49.282Z,11.47
2019-03-04T00:39:49.884Z,11.52
2019-03-04T00:39:50.481Z,11.53
2019-03-04T00:39:51.086Z,11.49
2019-03-04T00:39:51.680Z,11.53
2019-03-04T00:39:52.280Z,11.50
2019-03-04T00:40:45.760Z,11.53
2019-03-04T00:40:46.336Z,11.50
2019-03-04T00:40:46.938Z,11.53
2019-03-04T00:40:47.534Z,11.52
2019-03-04T00:40:48.133Z,11.53
2019-03-04T00:40:48.736Z,11.50
2019-03-04T00:40:49.336Z,11.54
2019-03-04T00:40:49.932Z,11.52
2019-03-04T00:41:56.119Z,11.54
2019-03-04T00:41:56.681Z,11.57
2019-03-04T00:41:57.281Z,11.50
2019-03-04T00:41:57.881Z,11.52
2019-03-04T00:41:58.480Z,11.56
2019-03-04T00:41:59.080Z,11.53
2019-03-04T00:41:59.680Z,11.61
2019-03-04T00:42:00.281Z,11.52
2019-03-04T00:42:54.787Z,11.54
2019-03-04T00:42:55.359Z,11.62
2019-03-04T00:42:55.959Z,11.65
2019-03-04T00:42:56.558Z,11.62
2019-03-04T00:42:57.157Z,11.59
2019-03-04T00:42:57.759Z,11.59
2019-03-04T00:42:58.361Z,11.64
2019-03-04T00:42:58.957Z,11.57
2019-03-04T00:43:52.441Z,11.59
2019-03-04T00:43:53.010Z,11.70
2019-03-04T00:43:53.610Z,11.70
2019-03-04T00:43:54.210Z,11.64
2019-03-04T00:43:54.811Z,11.64
2019-03-04T00:43:55.413Z,11.70
2019-03-04T00:43:56.012Z,11.64
2019-03-04T00:43:56.610Z,11.67
2019-03-04T00:44:50.092Z,11.65
2019-03-04T00:44:50.664Z,11.77
2019-03-04T00:44:51.266Z,11.70
2019-03-04T00:44:51.881Z,11.64
2019-03-04T00:44:52.463Z,11.68
2019-03-04T00:44:53.063Z,11.64
2019-03-04T00:44:53.662Z,11.72
2019-03-04T00:44:54.262Z,11.70
2019-03-04T00:45:47.745Z,11.71
2019-03-04T00:45:48.313Z,11.74
2019-03-04T00:45:48.913Z,11.68
2019-03-04T00:45:49.515Z,11.71
2019-03-04T00:45:50.114Z,11.75
2019-03-04T00:45:50.713Z,11.68
2019-03-04T00:45:51.315Z,11.74
2019-03-04T00:45:51.912Z,11.72
2019-03-04T00:46:46.419Z,11.75
2019-03-04T00:46:46.989Z,11.70
2019-03-04T00:46:47.589Z,11.78
2019-03-04T00:46:48.190Z,11.80
2019-03-04T00:46:48.788Z,11.72
2019-03-04T00:46:49.390Z,11.75
2019-03-04T00:46:49.990Z,11.74
2019-03-04T00:46:50.588Z,11.78
2019-03-04T00:47:44.072Z,11.72
2019-03-04T00:47:44.642Z,11.82
2019-03-04T00:47:45.242Z,11.78
2019-03-04T00:47:45.844Z,11.72
2019-03-04T00:47:46.442Z,11.82
2019-03-04T00:47:47.042Z,11.82
2019-03-04T00:47:47.642Z,11.82
2019-03-04T00:47:48.244Z,11.83
2019-03-04T00:48:41.721Z,11.86
2019-03-04T00:48:42.296Z,11.86
2019-03-04T00:48:42.894Z,11.82
2019-03-04T00:48:43.494Z,11.87
2019-03-04T00:48:44.094Z,11.83
2019-03-04T00:48:44.693Z,11.86
2019-03-04T00:48:45.295Z,11.86
2019-03-04T00:48:45.895Z,11.89
2019-03-04T00:49:40.397Z,11.82
2019-03-04T00:49:40.968Z,11.90
2019-03-04T00:49:41.568Z,11.80
2019-03-04T00:49:42.168Z,11.90
2019-03-04T00:49:42.768Z,11.82
2019-03-04T00:49:43.368Z,11.85
2019-03-04T00:49:43.971Z,11.97
2019-03-04T00:49:44.568Z,11.82
2019-03-04T00:50:38.152Z,11.80
2019-03-04T00:50:38.724Z,11.86
2019-03-04T00:50:39.324Z,11.82
2019-03-04T00:50:39.924Z,11.93
2019-03-04T00:50:40.524Z,11.97
2019-03-04T00:50:41.150Z,11.87
2019-03-04T00:50:41.726Z,11.93
2019-03-04T00:50:42.326Z,11.96
2019-03-04T00:51:35.802Z,11.82
2019-03-04T00:51:36.375Z,11.87
2019-03-04T00:51:36.975Z,11.90
2019-03-04T00:51:37.575Z,11.94
2019-03-04T00:51:38.175Z,11.93
2019-03-04T00:51:38.774Z,11.87
2019-03-04T00:51:39.374Z,12.01
2019-03-04T00:51:39.975Z,11.90
2019-03-04T00:52:34.476Z,11.90
2019-03-04T00:52:35.050Z,11.93
2019-03-04T00:52:35.650Z,11.97
2019-03-04T00:52:36.249Z,11.94
2019-03-04T00:52:36.850Z,11.94
2019-03-04T00:52:37.453Z,11.93
2019-03-04T00:52:38.051Z,11.86
2019-03-04T00:52:38.649Z,11.99
2019-03-04T00:53:33.152Z,11.89
2019-03-04T00:53:33.726Z,12.02
2019-03-04T00:53:34.325Z,12.02
2019-03-04T00:53:34.926Z,12.02
2019-03-04T00:53:35.525Z,12.02
2019-03-04T00:53:36.129Z,12.01
2019-03-04T00:53:36.725Z,12.01
2019-03-04T00:53:37.327Z,11.99
2019-03-04T00:54:30.809Z,11.99
2019-03-04T00:54:31.380Z,11.99
2019-03-04T00:54:31.979Z,11.97
2019-03-04T00:54:32.579Z,12.02
2019-03-04T00:54:33.179Z,12.02
2019-03-04T00:54:33.778Z,11.96
2019-03-04T00:54:34.378Z,12.02
2019-03-04T00:54:34.978Z,12.01
2019-03-04T00:55:29.484Z,12.01
2019-03-04T00:55:30.054Z,11.99
2019-03-04T00:55:30.652Z,11.99
2019-03-04T00:55:31.254Z,12.04
2019-03-04T00:55:31.855Z,12.01
2019-03-04T00:55:32.453Z,12.01
2019-03-04T00:55:33.054Z,12.01
2019-03-04T00:55:33.654Z,11.97
2019-03-04T00:56:27.133Z,11.99
2019-03-04T00:56:27.706Z,11.99
2019-03-04T00:56:28.306Z,11.99
2019-03-04T00:56:28.907Z,12.01
2019-03-04T00:56:29.505Z,11.99
2019-03-04T00:56:30.105Z,11.97
2019-03-04T00:56:30.707Z,12.04
2019-03-04T00:56:31.307Z,12.06
2019-03-04T00:57:25.808Z,12.11
2019-03-04T00:57:26.386Z,12.04
2019-03-04T00:57:26.982Z,12.08
2019-03-04T00:57:27.582Z,12.08
2019-03-04T00:57:28.181Z,12.05
2019-03-04T00:57:28.782Z,12.05
2019-03-04T00:57:29.382Z,12.05
2019-03-04T00:57:29.979Z,12.08
2019-03-04T00:58:23.460Z,12.08
2019-03-04T00:58:24.034Z,12.05
2019-03-04T00:58:24.635Z,12.05
2019-03-04T00:58:25.234Z,12.11
2019-03-04T00:58:25.835Z,12.12
2019-03-04T00:58:26.434Z,12.09
2019-03-04T00:58:27.033Z,12.04
2019-03-04T00:58:27.633Z,12.09
2019-03-04T00:59:22.139Z,12.06
2019-03-04T00:59:22.708Z,12.08
2019-03-04T00:59:23.308Z,12.15
2019-03-04T00:59:23.908Z,12.13
2019-03-04T00:59:24.508Z,12.08
2019-03-04T00:59:25.108Z,12.12
2019-03-04T00:59:25.709Z,12.09
2019-03-04T00:59:26.316Z,12.12
2019-03-04T01:00:19.788Z,12.11
2019-03-04T01:00:20.363Z,12.08
2019-03-04T01:00:20.963Z,12.12
2019-03-04T01:00:21.561Z,12.11
2019-03-04T01:00:22.160Z,12.06
2019-03-04T01:00:22.762Z,12.13
2019-03-04T01:00:23.361Z,12.13
2019-03-04T01:00:23.961Z,12.15
2019-03-04T01:01:17.444Z,12.16
2019-03-04T01:01:18.012Z,12.19
2019-03-04T01:01:18.616Z,12.15
2019-03-04T01:01:19.212Z,12.16
2019-03-04T01:01:19.812Z,12.12
2019-03-04T01:01:20.414Z,12.16
2019-03-04T01:01:21.014Z,12.21
2019-03-04T01:01:21.613Z,12.20
2019-03-04T01:02:15.091Z,12.13
2019-03-04T01:02:15.666Z,12.21
2019-03-04T01:02:16.265Z,12.19
2019-03-04T01:02:16.865Z,12.16
2019-03-04T01:02:17.464Z,12.21
2019-03-04T01:02:18.063Z,12.20
2019-03-04T01:02:18.665Z,12.21
2019-03-04T01:02:19.264Z,12.21
2019-03-04T01:03:13.766Z,12.21
2019-03-04T01:03:14.340Z,12.13
2019-03-04T01:03:14.940Z,12.16
2019-03-04T01:03:15.540Z,12.15
2019-03-04T01:03:16.139Z,12.15
2019-03-04T01:03:16.739Z,12.20
2019-03-04T01:03:17.344Z,12.16
2019-03-04T01:03:17.938Z,12.15
2019-03-04T01:04:12.442Z,12.11
2019-03-04T01:04:13.016Z,12.19
2019-03-04T01:04:13.615Z,12.20
2019-03-04T01:04:14.214Z,12.20
2019-03-04T01:04:14.817Z,12.15
2019-03-04T01:04:15.414Z,12.20
2019-03-04T01:04:16.015Z,12.16
2019-03-04T01:04:16.615Z,12.13
2019-03-04T01:05:10.098Z,12.20
2019-03-04T01:05:10.668Z,12.19
2019-03-04T01:05:11.269Z,12.13
2019-03-04T01:05:11.867Z,12.19
2019-03-04T01:05:12.467Z,12.16
2019-03-04T01:05:13.067Z,12.30
2019-03-04T01:05:13.668Z,12.15
2019-03-04T01:05:14.268Z,12.19
2019-03-04T01:06:07.749Z,12.20
2019-03-04T01:06:08.321Z,12.19
2019-03-04T01:06:08.920Z,12.16
2019-03-04T01:06:09.520Z,12.20
2019-03-04T01:06:10.119Z,12.20
2019-03-04T01:06:10.720Z,12.21
2019-03-04T01:06:11.319Z,12.21
2019-03-04T01:06:11.919Z,12.19
2019-03-04T01:07:05.505Z,12.15
2019-03-04T01:07:06.075Z,12.16
2019-03-04T01:07:06.673Z,12.24
2019-03-04T01:07:07.273Z,12.15
2019-03-04T01:07:07.874Z,12.23
2019-03-04T01:07:08.472Z,12.21
2019-03-04T01:07:09.073Z,12.21
2019-03-04T01:07:09.672Z,12.16
2019-03-04T01:08:03.154Z,12.21
2019-03-04T01:08:03.726Z,12.15
2019-03-04T01:08:04.325Z,12.16
2019-03-04T01:08:04.926Z,12.16
2019-03-04T01:08:05.525Z,12.19
2019-03-04T01:08:06.128Z,12.21
2019-03-04T01:08:06.724Z,12.20
2019-03-04T01:08:07.325Z,12.21
2019-03-04T01:09:00.806Z,12.19
2019-03-04T01:09:01.378Z,12.23
2019-03-04T01:09:01.978Z,12.15
2019-03-04T01:09:02.578Z,12.19
2019-03-04T01:09:03.176Z,12.20
2019-03-04T01:09:03.779Z,12.13
2019-03-04T01:09:04.377Z,12.19
2019-03-04T01:09:04.978Z,12.19
2019-03-04T01:09:58.458Z,12.16
2019-03-04T01:09:59.029Z,12.19
2019-03-04T01:09:59.629Z,12.15
2019-03-04T01:10:00.320Z,12.13
2019-03-04T01:10:00.828Z,12.21
2019-03-04T01:10:01.429Z,12.21
2019-03-04T01:10:02.028Z,12.20
2019-03-04T01:10:02.628Z,12.12
2019-03-04T01:10:56.109Z,12.13
2019-03-04T01:10:56.681Z,12.19
2019-03-04T01:10:57.290Z,12.15
2019-03-04T01:10:57.884Z,12.09
2019-03-04T01:10:58.482Z,12.11
2019-03-04T01:10:59.080Z,12.19
2019-03-04T01:10:59.680Z,12.13
2019-03-04T01:11:00.281Z,12.16
2019-03-04T01:11:54.783Z,12.02
2019-03-04T01:11:55.356Z,12.13
2019-03-04T01:11:55.955Z,12.12
2019-03-04T01:11:56.555Z,12.15
2019-03-04T01:11:57.155Z,12.08
2019-03-04T01:11:57.755Z,12.08
2019-03-04T01:11:58.356Z,12.12
2019-03-04T01:11:58.954Z,12.08
2019-03-04T01:12:52.460Z,12.04
2019-03-04T01:12:53.009Z,12.09
2019-03-04T01:12:53.607Z,12.21
2019-03-04T01:12:54.207Z,12.15
2019-03-04T01:12:54.807Z,12.08
2019-03-04T01:12:55.409Z,12.16
2019-03-04T01:12:56.006Z,12.08
2019-03-04T01:12:56.605Z,12.15
2019-03-04T01:13:51.110Z,12.08
2019-03-04T01:13:51.682Z,12.16
2019-03-04T01:13:52.283Z,12.08
2019-03-04T01:13:52.883Z,12.16
2019-03-04T01:13:53.482Z,12.09
2019-03-04T01:13:54.083Z,12.08
2019-03-04T01:13:54.686Z,12.15
2019-03-04T01:13:55.281Z,12.15
2019-03-04T01:14:48.765Z,12.11
2019-03-04T01:14:49.340Z,12.15
2019-03-04T01:14:49.934Z,12.08
2019-03-04T01:14:50.534Z,12.08
2019-03-04T01:14:51.134Z,12.15
2019-03-04T01:14:51.736Z,12.09
2019-03-04T01:14:52.335Z,12.16
2019-03-04T01:14:52.934Z,12.12
2019-03-04T01:15:47.438Z,12.12
2019-03-04T01:15:48.014Z,12.12
2019-03-04T01:15:48.610Z,12.19
2019-03-04T01:15:49.209Z,12.11
2019-03-04T01:15:49.809Z,12.12
2019-03-04T01:15:50.410Z,12.12
2019-03-04T01:15:51.013Z,12.08
2019-03-04T01:15:51.608Z,12.09
2019-03-04T01:16:45.091Z,12.13
2019-03-04T01:16:45.663Z,12.15
2019-03-04T01:16:46.263Z,12.11
2019-03-04T01:16:46.863Z,12.08
2019-03-04T01:16:47.463Z,12.15
2019-03-04T01:16:48.062Z,12.15
2019-03-04T01:16:48.664Z,12.11
2019-03-04T01:16:49.261Z,12.15
2019-03-04T01:17:42.744Z,12.13
2019-03-04T01:17:43.314Z,12.09
2019-03-04T01:17:43.915Z,12.11
2019-03-04T01:17:44.514Z,12.11
2019-03-04T01:17:45.114Z,12.13
2019-03-04T01:17:45.714Z,12.09
2019-03-04T01:17:46.317Z,12.12
2019-03-04T01:17:46.914Z,12.13
2019-03-04T01:18:40.393Z,12.08
2019-03-04T01:18:40.968Z,12.09
2019-03-04T01:18:41.566Z,12.20
2019-03-04T01:18:42.166Z,12.08
2019-03-04T01:18:42.765Z,12.16
2019-03-04T01:18:43.366Z,12.13
2019-03-04T01:18:43.967Z,12.15
2019-03-04T01:18:44.566Z,12.15
2019-03-04T01:19:39.069Z,12.06
2019-03-04T01:19:39.641Z,12.12
2019-03-04T01:19:40.241Z,12.11
2019-03-04T01:19:40.844Z,12.12
2019-03-04T01:19:41.442Z,12.13
2019-03-04T01:19:42.042Z,12.15
2019-03-04T01:19:42.642Z,12.04
2019-03-04T01:19:43.241Z,12.08
2019-03-04T01:20:36.721Z,12.11
2019-03-04T01:20:37.293Z,12.20
2019-03-04T01:20:37.894Z,12.12
2019-03-04T01:20:38.495Z,12.15
2019-03-04T01:20:39.094Z,12.12
2019-03-04T01:20:39.693Z,12.19
2019-03-04T01:20:40.295Z,12.13
2019-03-04T01:20:40.894Z,12.11
2019-03-04T01:21:34.372Z,12.11
2019-03-04T01:21:34.947Z,12.13
2019-03-04T01:21:35.546Z,12.20
2019-03-04T01:21:36.146Z,12.08
2019-03-04T01:21:36.751Z,12.13
2019-03-04T01:21:37.346Z,12.15
2019-03-04T01:21:37.944Z,12.16
2019-03-04T01:21:38.544Z,12.13
2019-03-04T01:22:32.023Z,12.11
2019-03-04T01:22:32.601Z,12.12
2019-03-04T01:22:33.196Z,12.15
2019-03-04T01:22:33.796Z,12.11
2019-03-04T01:22:34.399Z,12.12
2019-03-04T01:22:34.996Z,12.13
2019-03-04T01:22:35.602Z,12.11
2019-03-04T01:22:36.196Z,12.13
2019-03-04T01:23:29.678Z,12.13
2019-03-04T01:23:30.248Z,12.21
2019-03-04T01:23:30.847Z,12.11
2019-03-04T01:23:31.449Z,12.20
2019-03-04T01:23:32.049Z,12.08
2019-03-04T01:23:32.648Z,12.16
2019-03-04T01:23:33.246Z,12.20
2019-03-04T01:23:33.848Z,12.12
2019-03-04T01:24:27.330Z,12.15
2019-03-04T01:24:27.901Z,12.20
2019-03-04T01:24:28.500Z,12.20
2019-03-04T01:24:29.100Z,12.21
2019-03-04T01:24:29.700Z,12.15
2019-03-04T01:24:30.300Z,12.19
2019-03-04T01:24:30.903Z,12.16
2019-03-04T01:24:31.499Z,12.13
2019-03-04T01:25:24.979Z,12.19
2019-03-04T01:25:25.555Z,12.20
2019-03-04T01:25:26.152Z,12.19
2019-03-04T01:25:26.752Z,12.21
2019-03-04T01:25:27.354Z,12.13
2019-03-04T01:25:27.953Z,12.20
2019-03-04T01:25:28.551Z,12.16
2019-03-04T01:25:29.151Z,12.21
2019-03-04T01:26:22.631Z,12.11
2019-03-04T01:26:23.204Z,12.15
2019-03-04T01:26:23.805Z,12.16
2019-03-04T01:26:24.403Z,12.20
2019-03-04T01:26:25.003Z,12.16
2019-03-04T01:26:25.605Z,12.16
2019-03-04T01:26:26.203Z,12.12
2019-03-04T01:26:26.803Z,12.15
2019-03-04T01:27:20.283Z,12.09
2019-03-04T01:27:20.856Z,12.15
2019-03-04T01:27:21.456Z,12.12
2019-03-04T01:27:22.055Z,12.15
2019-03-04T01:27:22.655Z,12.12
2019-03-04T01:27:23.255Z,12.12
2019-03-04T01:27:23.857Z,12.16
2019-03-04T01:27:24.458Z,12.20
2019-03-04T01:28:17.935Z,12.19
2019-03-04T01:28:18.508Z,12.16
2019-03-04T01:28:19.113Z,12.16
2019-03-04T01:28:19.709Z,12.11
2019-03-04T01:28:20.308Z,12.13
2019-03-04T01:28:20.909Z,12.16
2019-03-04T01:28:21.507Z,12.13
2019-03-04T01:28:22.107Z,12.15
2019-03-04T01:29:15.589Z,12.09
2019-03-04T01:29:16.161Z,12.15
2019-03-04T01:29:16.759Z,12.13
2019-03-04T01:29:17.358Z,12.12
2019-03-04T01:29:17.958Z,12.15
2019-03-04T01:29:18.561Z,12.12
2019-03-04T01:29:19.159Z,12.13
2019-03-04T01:29:19.763Z,12.19
2019-03-04T01:30:13.237Z,12.15
2019-03-04T01:30:13.813Z,12.15
2019-03-04T01:30:14.414Z,12.15
2019-03-04T01:30:15.010Z,12.15
2019-03-04T01:30:15.612Z,12.15
2019-03-04T01:30:16.210Z,12.15
2019-03-04T01:30:16.813Z,12.15
2019-03-04T01:30:17.411Z,12.15
2019-03-04T01:31:10.889Z,12.12
2019-03-04T01:31:11.465Z,12.08
2019-03-04T01:31:12.064Z,12.19
2019-03-04T01:31:12.664Z,12.08
2019-03-04T01:31:13.265Z,12.16
2019-03-04T01:31:13.863Z,12.16
2019-03-04T01:31:14.464Z,12.12
2019-03-04T01:31:15.062Z,12.12
2019-03-04T01:32:09.564Z,12.16
2019-03-04T01:32:10.139Z,12.16
2019-03-04T01:32:10.737Z,12.19
2019-03-04T01:32:11.337Z,12.12
2019-03-04T01:32:11.937Z,12.16
2019-03-04T01:32:12.537Z,12.21
2019-03-04T01:32:13.141Z,12.15
2019-03-04T01:32:13.736Z,12.12
2019-03-04T01:33:07.217Z,12.16
2019-03-04T01:33:07.790Z,12.21
2019-03-04T01:33:08.389Z,12.16
2019-03-04T01:33:08.990Z,12.21
2019-03-04T01:33:09.591Z,12.13
2019-03-04T01:33:10.189Z,12.21
2019-03-04T01:33:10.788Z,12.23
2019-03-04T01:33:11.394Z,12.19
2019-03-04T01:34:04.868Z,12.20
2019-03-04T01:34:05.448Z,12.20
2019-03-04T01:34:06.044Z,12.20
2019-03-04T01:34:06.641Z,12.16
2019-03-04T01:34:07.241Z,12.21
2019-03-04T01:34:07.842Z,12.19
2019-03-04T01:34:08.442Z,12.20
2019-03-04T01:34:09.041Z,12.19
2019-03-04T01:35:02.523Z,12.21
2019-03-04T01:35:03.093Z,12.20
2019-03-04T01:35:03.694Z,12.26
2019-03-04T01:35:04.293Z,12.19
2019-03-04T01:35:04.892Z,12.23
2019-03-04T01:35:05.493Z,12.21
2019-03-04T01:35:06.093Z,12.19
2019-03-04T01:35:06.691Z,12.21
2019-03-04T01:36:00.177Z,12.21
2019-03-04T01:36:00.744Z,12.23
2019-03-04T01:36:01.345Z,12.26
2019-03-04T01:36:01.945Z,12.15
2019-03-04T01:36:02.546Z,12.26
2019-03-04T01:36:03.148Z,12.31
2019-03-04T01:36:03.745Z,12.20
2019-03-04T01:36:04.342Z,12.31
2019-03-04T01:36:58.850Z,12.29
2019-03-04T01:36:59.420Z,12.19
2019-03-04T01:37:00.019Z,12.20
2019-03-04T01:37:00.619Z,12.20
2019-03-04T01:37:01.224Z,12.27
2019-03-04T01:37:01.820Z,12.15
2019-03-04T01:37:02.422Z,12.16
2019-03-04T01:37:03.019Z,12.19
2019-03-04T01:37:56.501Z,12.16
2019-03-04T01:37:57.073Z,12.29
2019-03-04T01:37:57.673Z,12.31
2019-03-04T01:37:58.275Z,12.16
2019-03-04T01:37:58.875Z,12.24
2019-03-04T01:37:59.472Z,12.29
2019-03-04T01:38:00.074Z,12.30
2019-03-04T01:38:00.675Z,12.29
2019-03-04T01:38:54.662Z,12.23
2019-03-04T01:38:55.240Z,12.30
2019-03-04T01:38:55.835Z,12.30
2019-03-04T01:38:56.436Z,12.31
2019-03-04T01:38:57.037Z,12.37
2019-03-04T01:38:57.636Z,12.31
2019-03-04T01:38:58.247Z,12.31
2019-03-04T01:39:51.806Z,12.29
2019-03-04T01:39:52.377Z,12.29
2019-03-04T01:39:52.975Z,12.34
2019-03-04T01:39:53.575Z,12.33
2019-03-04T01:39:54.176Z,12.30
2019-03-04T01:39:54.775Z,12.30
2019-03-04T01:39:55.377Z,12.31
2019-03-04T01:39:55.977Z,12.29
2019-03-04T01:40:49.458Z,12.15
2019-03-04T01:40:50.028Z,12.31
2019-03-04T01:40:50.627Z,12.31
2019-03-04T01:40:51.232Z,12.23
2019-03-04T01:40:51.828Z,12.33
2019-03-04T01:40:52.428Z,12.31
2019-03-04T01:40:53.028Z,12.31
2019-03-04T01:40:53.628Z,12.31
2019-03-04T01:41:48.130Z,12.19
2019-03-04T01:41:48.704Z,12.23
2019-03-04T01:41:49.304Z,12.29
2019-03-04T01:41:49.902Z,12.33
2019-03-04T01:41:50.502Z,12.23
2019-03-04T01:41:51.104Z,12.23
2019-03-04T01:41:51.701Z,12.29
2019-03-04T01:41:52.304Z,12.30
2019-03-04T01:42:46.293Z,12.16
2019-03-04T01:42:46.871Z,12.12
2019-03-04T01:42:47.469Z,12.31
2019-03-04T01:42:48.064Z,12.19
2019-03-04T01:42:48.665Z,12.30
2019-03-04T01:42:49.268Z,12.26
2019-03-04T01:42:49.865Z,12.26
2019-03-04T01:43:43.437Z,12.19
2019-03-04T01:43:44.008Z,12.29
2019-03-04T01:43:44.608Z,12.30
2019-03-04T01:43:45.207Z,12.29
2019-03-04T01:43:45.806Z,12.24
2019-03-04T01:43:46.407Z,12.31
2019-03-04T01:43:47.010Z,12.29
2019-03-04T01:43:47.607Z,12.30
2019-03-04T01:44:41.190Z,12.23
2019-03-04T01:44:41.764Z,12.29
2019-03-04T01:44:42.362Z,12.21
2019-03-04T01:44:42.965Z,12.31
2019-03-04T01:44:43.561Z,12.31
2019-03-04T01:44:44.161Z,12.31
2019-03-04T01:44:44.762Z,12.30
2019-03-04T01:44:45.359Z,12.31
2019-03-04T01:45:39.864Z,12.37
2019-03-04T01:45:40.436Z,12.24
2019-03-04T01:45:41.035Z,12.29
2019-03-04T01:45:41.637Z,12.24
2019-03-04T01:45:42.235Z,12.31
2019-03-04T01:45:42.836Z,12.30
2019-03-04T01:45:43.435Z,12.30
2019-03-04T01:45:44.036Z,12.20
2019-03-04T01:46:37.524Z,12.33
2019-03-04T01:46:38.087Z,12.27
2019-03-04T01:46:38.689Z,12.34
2019-03-04T01:46:39.289Z,12.34
2019-03-04T01:46:39.889Z,12.20
2019-03-04T01:46:40.493Z,12.27
2019-03-04T01:46:41.087Z,12.31
2019-03-04T01:46:41.686Z,12.24
2019-03-04T01:47:36.194Z,12.26
2019-03-04T01:47:36.763Z,12.33
2019-03-04T01:47:37.363Z,12.34
2019-03-04T01:47:37.963Z,12.34
2019-03-04T01:47:38.563Z,12.31
2019-03-04T01:47:39.163Z,12.31
2019-03-04T01:47:39.763Z,12.31
2019-03-04T01:47:40.362Z,12.30
2019-03-04T01:48:33.845Z,12.23
2019-03-04T01:48:34.417Z,12.33
2019-03-04T01:48:35.015Z,12.31
2019-03-04T01:48:35.616Z,12.20
2019-03-04T01:48:36.216Z,12.26
2019-03-04T01:48:36.814Z,12.31
2019-03-04T01:48:37.418Z,12.24
2019-03-04T01:48:38.015Z,12.29
2019-03-04T01:49:31.497Z,12.29
2019-03-04T01:49:32.068Z,12.33
2019-03-04T01:49:32.667Z,12.33
2019-03-04T01:49:33.268Z,12.29
2019-03-04T01:49:33.869Z,12.30
2019-03-04T01:49:34.468Z,12.29
2019-03-04T01:49:35.067Z,12.20
2019-03-04T01:49:35.667Z,12.29
2019-03-04T01:50:29.146Z,12.20
2019-03-04T01:50:29.720Z,12.27
2019-03-04T01:50:30.320Z,12.30
2019-03-04T01:50:30.919Z,12.29
2019-03-04T01:50:31.520Z,12.23
2019-03-04T01:50:32.122Z,12.20
2019-03-04T01:50:32.721Z,12.29
2019-03-04T01:50:33.320Z,12.23
2019-03-04T01:51:27.822Z,12.19
2019-03-04T01:51:28.395Z,12.16
2019-03-04T01:51:28.994Z,12.16
2019-03-04T01:51:29.610Z,12.12
2019-03-04T01:51:30.194Z,12.15
2019-03-04T01:51:30.798Z,12.15
2019-03-04T01:51:31.393Z,12.16
2019-03-04T01:51:31.995Z,12.15
2019-03-04T01:52:26.505Z,12.23
2019-03-04T01:52:27.071Z,12.19
2019-03-04T01:52:27.670Z,12.20
2019-03-04T01:52:28.284Z,12.21
2019-03-04T01:52:28.870Z,12.13
2019-03-04T01:52:29.472Z,12.13
2019-03-04T01:52:30.070Z,12.16
2019-03-04T01:52:30.669Z,12.16
2019-03-04T01:53:24.148Z,12.15
2019-03-04T01:53:24.725Z,12.16
2019-03-04T01:53:25.324Z,12.15
2019-03-04T01:53:25.921Z,12.19
2019-03-04T01:53:26.522Z,12.16
2019-03-04T01:53:27.125Z,12.20
2019-03-04T01:53:27.722Z,12.15
2019-03-04T01:53:28.321Z,12.16
2019-03-04T01:54:21.800Z,12.08
2019-03-04T01:54:22.375Z,12.06
2019-03-04T01:54:22.974Z,12.13
2019-03-04T01:54:23.574Z,12.09
2019-03-04T01:54:24.174Z,12.09
2019-03-04T01:54:24.821Z,12.05
2019-03-04T01:54:25.373Z,12.08
2019-03-04T01:54:28.056Z,12.16
2019-03-04T01:55:20.480Z,12.02
2019-03-04T01:55:21.053Z,12.09
2019-03-04T01:55:21.652Z,12.06
2019-03-04T01:55:22.249Z,12.08
2019-03-04T01:55:22.848Z,12.08
2019-03-04T01:55:23.450Z,12.04
2019-03-04T01:55:24.071Z,12.01
2019-03-04T01:55:24.649Z,12.06
2019-03-04T01:56:18.129Z,12.01
2019-03-04T01:56:18.702Z,12.05
2019-03-04T01:56:19.302Z,12.05
2019-03-04T01:56:19.905Z,12.06
2019-03-04T01:56:20.500Z,12.05
2019-03-04T01:56:21.101Z,12.04
2019-03-04T01:56:21.701Z,11.99
2019-03-04T01:56:22.301Z,12.04
2019-03-04T01:57:16.803Z,12.06
2019-03-04T01:57:17.381Z,12.05
2019-03-04T01:57:17.977Z,12.02
2019-03-04T01:57:18.576Z,12.08
2019-03-04T01:57:19.176Z,12.08
2019-03-04T01:57:19.776Z,12.04
2019-03-04T01:57:20.378Z,12.02
2019-03-04T01:57:20.975Z,12.01
2019-03-04T01:58:14.461Z,12.06
2019-03-04T01:58:15.029Z,12.08
2019-03-04T01:58:15.629Z,12.01
2019-03-04T01:58:16.233Z,12.08
2019-03-04T01:58:16.826Z,12.08
2019-03-04T01:58:17.429Z,12.08
2019-03-04T01:58:18.028Z,12.02
2019-03-04T01:58:18.628Z,12.11
2019-03-04T01:59:13.132Z,12.08
2019-03-04T01:59:13.705Z,12.08
2019-03-04T01:59:14.303Z,12.06
2019-03-04T01:59:14.904Z,12.04
2019-03-04T01:59:15.504Z,12.15
2019-03-04T01:59:16.106Z,12.13
2019-03-04T01:59:16.703Z,12.08
2019-03-04T01:59:17.303Z,12.12
2019-03-04T02:00:11.810Z,12.08
2019-03-04T02:00:12.379Z,12.04
2019-03-04T02:00:12.981Z,12.11
2019-03-04T02:00:13.580Z,12.13
2019-03-04T02:00:14.179Z,12.09
2019-03-04T02:00:14.779Z,12.08
2019-03-04T02:00:15.411Z,12.13
2019-03-04T02:00:15.980Z,12.06
2019-03-04T02:01:09.463Z,12.01
2019-03-04T02:01:10.032Z,12.12
2019-03-04T02:01:10.634Z,12.13
2019-03-04T02:01:11.231Z,12.15
2019-03-04T02:01:11.831Z,12.11
2019-03-04T02:01:12.432Z,12.21
2019-03-04T02:01:13.032Z,12.05
2019-03-04T02:01:13.632Z,12.15
2019-03-04T02:02:07.114Z,12.15
2019-03-04T02:02:07.686Z,12.15
2019-03-04T02:02:08.285Z,12.11
2019-03-04T02:02:08.883Z,12.08
2019-03-04T02:02:09.483Z,12.04
2019-03-04T02:02:10.083Z,12.08
2019-03-04T02:02:10.683Z,12.11